createdAt,value
2017-12-05T00:00:27.510Z,3.00
2017-12-05T00:03:34.752Z,2.90
2017-12-05T00:06:41.423Z,3.00
2017-12-05T00:09:46.547Z,3.00
2017-12-05T00:12:52.372Z,3.00
2017-12-05T00:15:59.300Z,3.00
2017-12-05T00:19:05.047Z,3.00
2017-12-05T00:22:10.291Z,3.00
2017-12-05T00:25:15.649Z,3.00
2017-12-05T00:28:21.339Z,2.90
2017-12-05T00:31:33.646Z,2.90
2017-12-05T00:34:39.102Z,3.00
2017-12-05T00:37:44.341Z,3.10
2017-12-05T00:40:49.424Z,3.00
2017-12-05T00:43:54.656Z,3.10
2017-12-05T00:47:01.458Z,3.10
2017-12-05T00:50:09.308Z,3.00
2017-12-05T00:53:14.889Z,3.10
2017-12-05T00:56:19.978Z,3.10
2017-12-05T00:59:28.248Z,3.10
2017-12-05T01:02:34.332Z,3.20
2017-12-05T01:05:39.528Z,3.10
2017-12-05T01:08:44.431Z,3.00
2017-12-05T01:12:02.190Z,3.10
2017-12-05T01:15:07.644Z,3.10
2017-12-05T01:18:13.679Z,3.10
2017-12-05T01:21:18.581Z,3.20
2017-12-05T01:24:24.105Z,3.00
2017-12-05T01:27:30.019Z,3.00
2017-12-05T01:30:34.851Z,3.10
2017-12-05T01:33:40.128Z,3.20
2017-12-05T01:36:45.580Z,3.10
2017-12-05T01:39:57.517Z,3.20
2017-12-05T01:43:05.513Z,3.20
2017-12-05T01:46:13.260Z,3.20
2017-12-05T01:49:18.811Z,3.20
2017-12-05T01:52:26.632Z,3.20
2017-12-05T01:55:45.788Z,3.20
2017-12-05T01:58:56.112Z,3.10
2017-12-05T02:02:01.048Z,3.20
2017-12-05T02:05:07.524Z,3.20
2017-12-05T02:08:15.351Z,3.20
2017-12-05T02:11:20.428Z,3.20
2017-12-05T02:14:25.386Z,3.20
2017-12-05T02:17:31.028Z,3.20
2017-12-05T02:20:36.968Z,3.10
2017-12-05T02:23:48.587Z,3.10
2017-12-05T02:26:53.460Z,3.20
2017-12-05T02:30:06.621Z,3.30
2017-12-05T02:33:14.827Z,3.30
2017-12-05T02:36:20.604Z,3.20
2017-12-05T02:39:26.138Z,3.20
2017-12-05T02:42:31.088Z,3.20
2017-12-05T02:45:36.282Z,3.30
2017-12-05T02:49:00.060Z,3.30
2017-12-05T02:52:06.945Z,3.20
2017-12-05T02:55:11.792Z,3.20
2017-12-05T02:58:17.086Z,3.30
2017-12-05T03:01:22.721Z,3.10
2017-12-05T03:04:45.210Z,3.10
2017-12-05T03:07:50.568Z,3.10
2017-12-05T03:10:58.039Z,3.10
2017-12-05T03:14:03.336Z,3.20
2017-12-05T03:17:16.057Z,3.10
2017-12-05T03:20:21.239Z,3.10
2017-12-05T03:23:28.808Z,3.10
2017-12-05T03:26:33.889Z,3.10
2017-12-05T03:29:39.272Z,3.10
2017-12-05T03:32:44.816Z,3.20
2017-12-05T03:35:50.120Z,3.20
2017-12-05T03:38:57.484Z,3.10
2017-12-05T03:42:03.201Z,3.10
2017-12-05T03:45:08.144Z,3.10
2017-12-05T03:48:13.636Z,3.00
2017-12-05T03:51:18.528Z,3.00
2017-12-05T03:54:23.437Z,3.00
2017-12-05T03:57:31.688Z,3.10
2017-12-05T04:00:40.217Z,3.10
2017-12-05T04:03:54.959Z,3.00
2017-12-05T04:07:01.581Z,3.00
2017-12-05T04:10:07.296Z,3.00
2017-12-05T04:13:12.700Z,3.10
2017-12-05T04:16:18.632Z,3.00
2017-12-05T04:19:23.960Z,3.10
2017-12-05T04:22:31.115Z,3.10
2017-12-05T04:25:36.309Z,3.30
2017-12-05T04:28:41.445Z,3.30
2017-12-05T04:31:47.112Z,3.40
2017-12-05T04:34:52.395Z,3.20
2017-12-05T04:37:58.379Z,3.10
2017-12-05T04:41:03.684Z,3.10
2017-12-05T04:44:08.961Z,3.20
2017-12-05T04:47:13.944Z,3.10
2017-12-05T04:50:18.664Z,3.10
2017-12-05T04:53:24.150Z,3.20
2017-12-05T04:56:30.222Z,3.20
2017-12-05T04:59:35.975Z,3.30
2017-12-05T05:02:41.969Z,3.30
2017-12-05T05:05:47.572Z,3.30
2017-12-05T05:08:52.545Z,3.30
2017-12-05T05:11:59.018Z,3.40
2017-12-05T05:15:07.371Z,3.30
2017-12-05T05:18:16.447Z,3.30
2017-12-05T05:21:22.898Z,3.30
2017-12-05T05:24:29.916Z,3.30
2017-12-05T05:27:36.020Z,3.20
2017-12-05T05:30:47.073Z,3.10
2017-12-05T05:33:52.400Z,3.20
2017-12-05T05:36:58.076Z,3.10
2017-12-05T05:40:02.916Z,3.20
2017-12-05T05:43:08.777Z,3.20
2017-12-05T05:46:15.020Z,3.20
2017-12-05T05:49:20.629Z,3.20
2017-12-05T05:52:30.105Z,3.20
2017-12-05T05:55:35.356Z,3.20
2017-12-05T05:58:46.130Z,3.30
2017-12-05T06:02:01.761Z,3.40
2017-12-05T06:05:09.484Z,3.50
2017-12-05T06:08:14.065Z,3.30
2017-12-05T06:11:19.760Z,3.20
2017-12-05T06:14:25.448Z,3.20
2017-12-05T06:17:38.578Z,3.30
2017-12-05T06:20:43.744Z,3.30
2017-12-05T06:23:48.972Z,3.30
2017-12-05T06:26:54.296Z,3.40
2017-12-05T06:29:59.142Z,3.30
2017-12-05T06:33:03.992Z,3.40
2017-12-05T06:36:09.711Z,3.40
2017-12-05T06:39:15.748Z,3.40
2017-12-05T06:42:21.385Z,3.20
2017-12-05T06:45:26.127Z,3.30
2017-12-05T06:48:31.225Z,3.30
2017-12-05T06:51:38.267Z,3.20
2017-12-05T06:54:43.828Z,3.20
2017-12-05T06:57:49.176Z,3.20
2017-12-05T07:00:54.517Z,3.10
2017-12-05T07:03:59.727Z,3.10
2017-12-05T07:07:04.448Z,3.20
2017-12-05T07:10:09.306Z,3.20
2017-12-05T07:13:14.508Z,3.10
2017-12-05T07:16:20.057Z,3.10
2017-12-05T07:19:25.764Z,3.20
2017-12-05T07:22:31.579Z,3.30
2017-12-05T07:25:37.268Z,3.30
2017-12-05T07:28:42.002Z,3.30
2017-12-05T07:31:46.679Z,3.20
2017-12-05T07:34:52.340Z,3.20
2017-12-05T07:37:58.177Z,3.30
2017-12-05T07:41:03.660Z,3.30
2017-12-05T07:44:09.721Z,3.20
2017-12-05T07:47:15.435Z,3.20
2017-12-05T07:50:20.975Z,3.30
2017-12-05T07:53:26.488Z,3.30
2017-12-05T07:56:31.924Z,3.30
2017-12-05T07:59:37.729Z,3.30
2017-12-05T08:02:43.428Z,3.30
2017-12-05T08:05:49.012Z,3.30
2017-12-05T08:08:54.607Z,3.30
2017-12-05T08:12:00.489Z,3.40
2017-12-05T08:15:06.273Z,3.40
2017-12-05T08:18:11.285Z,3.30
2017-12-05T08:21:16.433Z,3.30
2017-12-05T08:24:21.762Z,3.30
2017-12-05T08:27:26.797Z,3.40
2017-12-05T08:30:33.229Z,3.60
2017-12-05T08:33:39.015Z,3.60
2017-12-05T08:36:43.888Z,3.70
2017-12-05T08:39:49.840Z,3.70
2017-12-05T08:42:56.167Z,3.90
2017-12-05T08:46:01.713Z,3.90
2017-12-05T08:49:07.766Z,4.00
2017-12-05T08:52:12.773Z,4.00
2017-12-05T08:55:18.527Z,4.00
2017-12-05T08:58:24.194Z,3.90
2017-12-05T09:01:28.864Z,3.80
2017-12-05T09:04:34.200Z,4.00
2017-12-05T09:07:40.187Z,4.00
2017-12-05T09:10:45.376Z,4.10
2017-12-05T09:13:50.441Z,4.30
2017-12-05T09:16:56.762Z,4.30
2017-12-05T09:20:01.548Z,4.40
2017-12-05T09:23:06.913Z,4.40
2017-12-05T09:26:12.936Z,4.40
2017-12-05T09:29:18.675Z,4.40
2017-12-05T09:32:24.938Z,4.40
2017-12-05T09:35:30.054Z,4.40
2017-12-05T09:38:35.686Z,4.40
2017-12-05T09:41:41.558Z,4.50
2017-12-05T09:44:47.033Z,4.50
2017-12-05T09:47:52.553Z,4.50
2017-12-05T09:50:57.845Z,4.50
2017-12-05T09:54:03.408Z,4.50
2017-12-05T09:57:08.557Z,4.60
2017-12-05T10:00:14.149Z,4.70
2017-12-05T10:03:19.261Z,4.70
2017-12-05T10:06:26.599Z,4.80
2017-12-05T10:09:32.137Z,4.80
2017-12-05T10:12:38.980Z,4.50
2017-12-05T10:15:44.152Z,4.40
2017-12-05T10:18:51.148Z,4.40
2017-12-05T10:21:56.546Z,4.40
2017-12-05T10:25:01.773Z,4.40
2017-12-05T10:28:06.549Z,4.50
2017-12-05T10:31:12.517Z,4.60
2017-12-05T10:34:17.772Z,4.60
2017-12-05T10:37:24.997Z,4.70
2017-12-05T10:40:30.451Z,4.70
2017-12-05T10:43:36.146Z,4.70
2017-12-05T10:46:41.644Z,4.50
2017-12-05T10:49:46.600Z,4.50
2017-12-05T10:52:52.029Z,4.40
2017-12-05T10:55:57.140Z,4.50
2017-12-05T10:59:02.092Z,4.60
2017-12-05T11:04:38.744Z,5.10
2017-12-05T11:07:44.615Z,5.40
2017-12-05T11:10:49.571Z,5.40
2017-12-05T11:13:54.592Z,5.20
2017-12-05T11:17:00.111Z,5.40
2017-12-05T11:20:06.622Z,5.40
2017-12-05T11:23:12.321Z,5.40
2017-12-05T11:26:17.617Z,5.40
2017-12-05T11:29:22.607Z,5.60
2017-12-05T11:32:27.824Z,5.60
2017-12-05T11:35:32.611Z,5.60
2017-12-05T11:38:37.784Z,5.80
2017-12-05T11:41:46.123Z,6.00
2017-12-05T11:44:51.347Z,6.10
2017-12-05T11:47:56.473Z,6.10
2017-12-05T11:51:01.713Z,6.00
2017-12-05T11:54:07.441Z,5.90
2017-12-05T11:57:12.200Z,6.10
2017-12-05T12:00:17.648Z,6.10
2017-12-05T12:03:23.283Z,6.20
2017-12-05T12:06:28.423Z,6.20
2017-12-05T12:09:33.993Z,6.10
2017-12-05T12:12:39.380Z,5.90
2017-12-05T12:15:44.495Z,5.80
2017-12-05T12:18:49.648Z,5.70
2017-12-05T12:21:55.457Z,5.70
2017-12-05T12:25:01.089Z,5.70
2017-12-05T12:28:06.367Z,5.70
2017-12-05T12:31:11.657Z,5.80
2017-12-05T12:34:16.916Z,5.90
2017-12-05T12:37:22.243Z,6.00
2017-12-05T12:40:28.406Z,5.50
2017-12-05T12:43:33.620Z,5.50
2017-12-05T12:46:39.380Z,5.60
2017-12-05T12:49:45.517Z,5.60
2017-12-05T12:52:51.411Z,5.50
2017-12-05T12:55:56.365Z,5.70
2017-12-05T12:59:08.681Z,5.80
2017-12-05T13:02:16.872Z,5.80
2017-12-05T13:05:22.718Z,5.80
2017-12-05T13:08:28.488Z,6.00
2017-12-05T13:11:41.332Z,6.00
2017-12-05T13:14:49.388Z,6.20
2017-12-05T13:17:55.887Z,6.10
2017-12-05T13:21:01.529Z,6.00
2017-12-05T13:24:06.876Z,6.00
2017-12-05T13:27:14.975Z,5.80
2017-12-05T13:30:21.744Z,5.70
2017-12-05T13:33:27.411Z,5.70
2017-12-05T13:36:34.060Z,5.60
2017-12-05T13:39:40.924Z,5.70
2017-12-05T13:42:47.069Z,5.70
2017-12-05T13:45:52.284Z,5.80
2017-12-05T13:48:58.432Z,5.70
2017-12-05T13:52:03.525Z,5.70
2017-12-05T13:55:09.313Z,5.70
2017-12-05T13:58:14.203Z,5.70
2017-12-05T14:01:20.775Z,5.60
2017-12-05T14:04:26.381Z,5.70
2017-12-05T14:07:31.049Z,5.70
2017-12-05T14:10:35.787Z,5.60
2017-12-05T14:13:41.244Z,5.70
2017-12-05T14:16:46.870Z,5.70
2017-12-05T14:19:52.132Z,5.70
2017-12-05T14:22:57.120Z,5.90
2017-12-05T14:26:02.040Z,5.80
2017-12-05T14:29:07.564Z,5.70
2017-12-05T14:32:13.100Z,5.80
2017-12-05T14:35:19.534Z,5.90
2017-12-05T14:38:25.267Z,5.90
2017-12-05T14:41:30.415Z,5.80
2017-12-05T14:44:36.431Z,5.70
2017-12-05T14:47:41.300Z,5.70
2017-12-05T14:50:46.315Z,5.60
2017-12-05T14:53:52.052Z,5.60
2017-12-05T14:56:56.860Z,5.50
2017-12-05T15:00:02.449Z,5.50
2017-12-05T15:03:07.763Z,5.40
2017-12-05T15:06:12.764Z,5.30
2017-12-05T15:09:18.946Z,5.30
2017-12-05T15:12:27.519Z,5.30
2017-12-05T15:15:32.552Z,5.30
2017-12-05T15:18:38.070Z,5.30
2017-12-05T15:21:43.991Z,5.30
2017-12-05T15:24:49.372Z,5.30
2017-12-05T15:27:54.805Z,5.30
2017-12-05T15:31:00.149Z,5.20
2017-12-05T15:34:05.568Z,5.30
2017-12-05T15:37:11.478Z,5.30
2017-12-05T15:40:16.451Z,5.30
2017-12-05T15:43:21.535Z,5.20
2017-12-05T15:46:26.537Z,5.20
2017-12-05T15:49:44.921Z,5.10
2017-12-05T15:52:50.725Z,5.00
2017-12-05T15:55:57.181Z,5.00
2017-12-05T15:59:03.396Z,5.00
2017-12-05T16:02:09.365Z,5.00
2017-12-05T16:05:14.632Z,5.00
2017-12-05T16:08:20.639Z,4.90
2017-12-05T16:11:40.824Z,4.90
2017-12-05T16:14:46.473Z,5.10
2017-12-05T16:17:51.945Z,5.10
2017-12-05T16:20:57.722Z,5.00
2017-12-05T16:24:02.599Z,4.90
2017-12-05T16:27:08.377Z,4.80
2017-12-05T16:30:17.687Z,4.80
2017-12-05T16:33:23.277Z,4.90
2017-12-05T16:36:28.745Z,4.90
2017-12-05T16:39:34.197Z,4.90
2017-12-05T16:42:49.169Z,4.90
2017-12-05T16:45:54.552Z,4.80
2017-12-05T16:48:59.764Z,4.80
2017-12-05T16:52:11.912Z,4.80
2017-12-05T16:55:17.424Z,4.70
2017-12-05T16:58:26.416Z,4.80
2017-12-05T17:01:34.876Z,4.80
2017-12-05T17:04:42.474Z,4.70
2017-12-05T17:07:50.633Z,4.70
2017-12-05T17:10:56.738Z,5.00
2017-12-05T17:14:03.114Z,5.00
2017-12-05T17:17:08.036Z,5.00
2017-12-05T17:20:15.520Z,4.90
2017-12-05T17:23:20.676Z,4.80
2017-12-05T17:26:28.263Z,4.80
2017-12-05T17:29:34.276Z,4.80
2017-12-05T17:32:41.048Z,4.90
2017-12-05T17:35:46.529Z,5.00
2017-12-05T17:38:51.595Z,5.00
2017-12-05T17:42:16.363Z,5.10
2017-12-05T17:45:21.950Z,4.70
2017-12-05T17:48:28.737Z,4.70
2017-12-05T17:51:33.909Z,4.70
2017-12-05T17:54:38.841Z,4.70
2017-12-05T17:57:49.952Z,4.70
2017-12-05T18:00:55.228Z,4.70
2017-12-05T18:04:00.272Z,4.70
2017-12-05T18:07:05.916Z,4.70
2017-12-05T18:10:15.592Z,4.70
2017-12-05T18:13:26.209Z,4.70
2017-12-05T18:16:31.219Z,4.60
2017-12-05T18:19:36.570Z,4.60
2017-12-05T18:22:43.542Z,4.70
2017-12-05T18:25:57.238Z,4.70
2017-12-05T18:29:05.859Z,4.70
2017-12-05T18:32:11.352Z,4.80
2017-12-05T18:35:16.290Z,4.70
2017-12-05T18:38:22.973Z,4.80
2017-12-05T18:41:31.715Z,4.80
2017-12-05T18:44:36.799Z,4.80
2017-12-05T18:47:41.744Z,4.80
2017-12-05T18:50:47.137Z,4.80
2017-12-05T18:53:52.839Z,4.70
2017-12-05T18:57:06.571Z,4.70
2017-12-05T19:00:13.499Z,4.70
2017-12-05T19:03:18.961Z,4.70
2017-12-05T19:06:25.060Z,4.70
2017-12-05T19:09:31.045Z,4.60
2017-12-05T19:12:36.307Z,4.60
2017-12-05T19:15:41.965Z,4.60
2017-12-05T19:18:55.371Z,4.60
2017-12-05T19:22:03.371Z,4.70
2017-12-05T19:25:08.612Z,4.70
2017-12-05T19:28:15.005Z,4.80
2017-12-05T19:31:20.228Z,4.80
2017-12-05T19:34:26.610Z,4.80
2017-12-05T19:37:31.672Z,4.60
2017-12-05T19:40:37.568Z,4.60
2017-12-05T19:43:47.566Z,4.60
2017-12-05T19:46:53.064Z,4.60
2017-12-05T19:50:00.888Z,4.60
2017-12-05T19:53:08.401Z,4.60
2017-12-05T19:56:13.670Z,4.60
2017-12-05T19:59:18.568Z,4.60
2017-12-05T20:02:24.196Z,4.60
2017-12-05T20:05:29.892Z,4.60
2017-12-05T20:08:35.420Z,4.60
2017-12-05T20:11:40.992Z,4.60
2017-12-05T20:14:46.552Z,4.50
2017-12-05T20:17:58.178Z,4.60
2017-12-05T20:21:06.720Z,4.60
2017-12-05T20:24:14.915Z,4.50
2017-12-05T20:27:20.085Z,4.50
2017-12-05T20:30:25.491Z,4.50
2017-12-05T20:33:36.848Z,4.50
2017-12-05T20:36:45.168Z,4.50
2017-12-05T20:39:50.801Z,4.50
2017-12-05T20:42:56.704Z,4.60
2017-12-05T20:46:02.575Z,4.70
2017-12-05T20:49:08.960Z,4.60
2017-12-05T20:52:14.276Z,4.50
2017-12-05T20:55:19.035Z,4.50
2017-12-05T20:58:24.733Z,4.50
2017-12-05T21:01:35.640Z,4.50
2017-12-05T21:04:40.751Z,4.50
2017-12-05T21:07:48.838Z,4.60
2017-12-05T21:10:54.724Z,4.50
2017-12-05T21:14:00.427Z,4.60
2017-12-05T21:17:05.388Z,4.70
2017-12-05T21:20:16.413Z,4.60
2017-12-05T21:23:21.619Z,4.60
2017-12-05T21:26:33.225Z,4.70
2017-12-05T21:29:39.044Z,4.80
2017-12-05T21:32:44.640Z,4.70
2017-12-05T21:35:53.771Z,4.70
2017-12-05T21:38:59.659Z,4.70
2017-12-05T21:42:08.573Z,4.70
2017-12-05T21:45:13.321Z,4.70
2017-12-05T21:48:18.640Z,4.70
2017-12-05T21:51:23.655Z,4.70
2017-12-05T21:54:32.107Z,4.70
2017-12-05T21:57:37.807Z,4.60
2017-12-05T22:00:43.281Z,4.50
2017-12-05T22:03:48.369Z,4.40
2017-12-05T22:06:53.964Z,4.40
2017-12-05T22:10:00.208Z,4.40
2017-12-05T22:13:05.762Z,4.40
2017-12-05T22:16:16.802Z,4.50
2017-12-05T22:19:21.992Z,4.50
2017-12-05T22:22:36.608Z,4.60
2017-12-05T22:25:51.379Z,4.60
2017-12-05T22:29:00.912Z,4.60
2017-12-05T22:32:07.767Z,4.60
2017-12-05T22:35:12.820Z,4.60
2017-12-05T22:38:18.601Z,4.70
2017-12-05T22:41:24.791Z,4.60
2017-12-05T22:44:30.612Z,4.60
2017-12-05T22:47:35.340Z,4.60
2017-12-05T22:50:43.630Z,4.60
2017-12-05T22:53:49.184Z,4.60
2017-12-05T22:56:57.584Z,4.60
2017-12-05T23:00:03.367Z,4.60
2017-12-05T23:03:14.692Z,4.60
2017-12-05T23:06:19.732Z,4.60
2017-12-05T23:09:24.953Z,4.60
2017-12-05T23:12:33.855Z,4.60
2017-12-05T23:15:39.040Z,4.50
2017-12-05T23:18:44.076Z,4.50
2017-12-05T23:21:49.841Z,4.40
2017-12-05T23:24:55.237Z,4.40
2017-12-05T23:28:01.119Z,4.30
2017-12-05T23:31:05.969Z,4.20
2017-12-05T23:34:11.840Z,4.10
2017-12-05T23:37:18.130Z,4.20
2017-12-05T23:40:22.876Z,4.20
2017-12-05T23:43:28.438Z,4.10
2017-12-05T23:46:34.636Z,4.20
2017-12-05T23:49:46.692Z,4.20
2017-12-05T23:52:51.896Z,4.10
2017-12-05T23:56:03.144Z,4.10
2017-12-05T23:59:09.579Z,4.10
